Campaign, TN (38550)

09:28 PM CDT del 02 Settembre 2015 (GMT -0500)
Faulkner Springs | | Change Station
CLOSE
Current Station
Stazione meteo personale
Location: McMinnville, TN
Altitudine: 928 ft
Stazioni meteo nelle vicinanze

Alt. 928 ft 35.72 °N, 85.75 °W | Updated 1 minute ago

Sereno
Sereno
73.9 °F
Sembra 73 °F
N
0.0
Vento Variabile Vento da SO

Oggi
Massima -- | Minima -- °F
--% Possibilità di precip.
Ieri
Massima -- | Minima -- °F
Precip. -- in
6:15 AM 7:08 PM
Gobba a levante, 75% visible
Pressione 30.05 in
Visibilità 10.0 miglia
Nuvole Sereno
Indice di calore 73 °F
Punto di rugiada 69 °F
Umidità 86%
Piovosità 0.00 in
Spessore del manto nevoso Non disponibile.
Raggi UV 0 fuori da 12
Polline 9.50 fuori da 12
Qualità dell'aria Non disponibile.
Flu Activity Non disponibile.
METAR KSRB 030215Z AUTO 00000KT 10SM CLR 24/22 A3005 RMK
Pressione 30.05 in
Visibilità 10.0 miglia
Nuvole Sereno
Indice di calore 73 °F
Punto di rugiada 69 °F
Umidità 86%
Piovosità 0.00 in
Spessore del manto nevoso Non disponibile.
Raggi UV 0 fuori da 12
Polline 9.50 fuori da 12
Qualità dell'aria Non disponibile.
Flu Activity Non disponibile.
METAR KSRB 030215Z AUTO 00000KT 10SM CLR 24/22 A3005 RMK

10-Day Weather Forecast

×

Almanac

Astronomia

Sep. 02, 2015 Alba Tramonto
Ora attuale
Crepuscolo civile
Crepuscolo nautico
Crepuscolo astronomico
Luna
Estensione della luce visibile
Lunghezza del giorno
Tomorrow will be .
, % of the Moon is Illuminated

Gli estremi di oggi

State Highs State Lows

Community

WunderPhotos

Upload Photos

1,851,877 foto caricate!

WunderBlogs® & News

Nearby

Qualità dell'aria

  Qualità dell'aria Indice AQ Inquinante
Not available.

Profondità neve

Stazione Profondità Altitudine

Attività sismica

Città  Distanza Mag. Data & Ora
Minimo Magnitudo Mostrato è 2.5.

Temperature delle acque costiere

Località Temperatura

Stations

Stazioni meteo nelle vicinanze

Ubicazione della stazione Temp. Raffreddamento del vento Punto di rugiada Umidità Vento Precip. Alt. Aggiornato Tipo